createdAt,value
2023-02-01T00:01:14.085Z,75.14
2023-02-01T00:03:46.538Z,75.52
2023-02-01T00:06:18.827Z,74.93
2023-02-01T00:08:50.842Z,74.89
2023-02-01T00:11:23.442Z,74.89
2023-02-01T00:13:56.043Z,75.22
2023-02-01T00:16:30.840Z,74.58
2023-02-01T00:19:05.946Z,74.95
2023-02-01T00:21:38.147Z,74.35
2023-02-01T00:24:12.721Z,74.37
2023-02-01T00:26:47.444Z,74.15
2023-02-01T00:29:21.805Z,74.12
2023-02-01T00:31:54.689Z,74.07
2023-02-01T00:34:26.912Z,73.76
2023-02-01T00:36:58.906Z,73.71
2023-02-01T00:39:30.826Z,73.32
2023-02-01T00:42:03.327Z,73.41
2023-02-01T00:44:36.428Z,73.68
2023-02-01T00:47:08.501Z,73.54
2023-02-01T00:49:41.635Z,73.57
2023-02-01T00:52:13.606Z,73.21
2023-02-01T00:54:46.035Z,72.97
2023-02-01T00:57:18.369Z,72.64
2023-02-01T00:59:50.321Z,72.56
2023-02-01T01:02:22.392Z,72.36
2023-02-01T01:04:54.529Z,72.65
2023-02-01T01:07:26.556Z,72.49
2023-02-01T01:09:58.470Z,72.54
2023-02-01T01:12:30.491Z,72.42
2023-02-01T01:15:02.481Z,72.37
2023-02-01T01:17:34.533Z,72.01
2023-02-01T01:20:07.219Z,72.22
2023-02-01T01:22:39.223Z,72.31
2023-02-01T01:25:11.737Z,72.46
2023-02-01T01:27:43.791Z,72.47
2023-02-01T01:30:16.299Z,72.54
2023-02-01T01:32:48.279Z,72.49
2023-02-01T01:35:20.458Z,72.41
2023-02-01T01:37:52.405Z,72.34
2023-02-01T01:40:24.914Z,72.02
2023-02-01T01:42:57.636Z,72.14
2023-02-01T01:45:36.010Z,71.84
2023-02-01T01:48:10.911Z,71.87
2023-02-01T01:50:46.125Z,71.84
2023-02-01T01:53:21.246Z,71.95
2023-02-01T01:55:55.675Z,71.93
2023-02-01T01:58:30.514Z,72.02
2023-02-01T02:01:02.699Z,72.00
2023-02-01T02:03:43.779Z,71.97
2023-02-01T02:06:24.713Z,71.95
2023-02-01T02:08:57.714Z,71.80
2023-02-01T02:11:29.842Z,71.80
2023-02-01T02:14:02.296Z,71.73
2023-02-01T02:16:43.007Z,71.72
2023-02-01T02:19:33.265Z,71.79
2023-02-01T02:22:34.920Z,71.76
2023-02-01T02:25:39.035Z,71.49
2023-02-01T02:28:26.203Z,71.61
2023-02-01T02:31:17.883Z,71.33
2023-02-01T02:34:08.132Z,71.15
2023-02-01T02:36:59.423Z,71.15
2023-02-01T02:39:37.268Z,71.56
2023-02-01T02:42:46.723Z,71.63
2023-02-01T02:45:42.086Z,71.38
2023-02-01T02:48:26.206Z,71.60
2023-02-01T02:51:13.115Z,71.61
2023-02-01T02:54:35.885Z,71.73
2023-02-01T02:57:28.409Z,71.64
2023-02-01T03:00:22.529Z,71.51
2023-02-01T03:03:13.402Z,71.64
2023-02-01T03:05:48.712Z,71.73
2023-02-01T03:08:23.556Z,71.64
2023-02-01T03:11:01.545Z,71.79
2023-02-01T03:13:39.413Z,71.47
2023-02-01T03:16:20.211Z,71.43
2023-02-01T03:19:05.667Z,71.70
2023-02-01T03:21:49.124Z,71.61
2023-02-01T03:24:48.073Z,71.67
2023-02-01T03:27:39.629Z,71.67
2023-02-01T03:30:16.770Z,71.39
2023-02-01T03:33:01.736Z,71.48
2023-02-01T03:35:41.150Z,71.62
2023-02-01T03:38:18.909Z,71.84
2023-02-01T03:41:10.284Z,72.10
2023-02-01T03:43:48.405Z,72.10
2023-02-01T03:46:34.218Z,72.19
2023-02-01T03:49:10.027Z,72.24
2023-02-01T03:51:43.619Z,72.35
2023-02-01T03:54:17.733Z,72.24
2023-02-01T03:56:50.801Z,72.24
2023-02-01T03:59:22.887Z,72.28
2023-02-01T04:01:55.435Z,71.94
2023-02-01T04:04:28.152Z,72.24
2023-02-01T04:07:01.184Z,71.84
2023-02-01T04:09:34.203Z,72.13
2023-02-01T04:12:06.847Z,71.99
2023-02-01T04:14:39.709Z,72.08
2023-02-01T04:17:12.720Z,72.47
2023-02-01T04:19:44.880Z,72.47
2023-02-01T04:22:17.738Z,72.63
2023-02-01T04:24:49.888Z,72.60
2023-02-01T04:27:21.895Z,72.75
2023-02-01T04:29:54.097Z,72.67
2023-02-01T04:32:27.119Z,72.32
2023-02-01T04:34:59.706Z,72.23
2023-02-01T04:37:33.903Z,72.16
2023-02-01T04:40:06.991Z,72.05
2023-02-01T04:42:39.361Z,72.03
2023-02-01T04:45:12.621Z,72.07
2023-02-01T04:47:46.017Z,72.16
2023-02-01T04:50:19.518Z,72.20
2023-02-01T04:52:51.698Z,72.08
2023-02-01T04:55:25.638Z,72.16
2023-02-01T04:57:58.455Z,72.07
2023-02-01T05:00:31.139Z,72.31
2023-02-01T05:03:03.425Z,72.58
2023-02-01T05:05:35.908Z,72.59
2023-02-01T05:08:09.212Z,72.66
2023-02-01T05:10:42.172Z,72.87
2023-02-01T05:13:32.503Z,73.04
2023-02-01T05:16:05.954Z,73.15
2023-02-01T05:18:38.314Z,73.22
2023-02-01T05:21:10.853Z,73.14
2023-02-01T05:24:02.231Z,72.98
2023-02-01T05:26:35.002Z,72.78
2023-02-01T05:29:08.783Z,72.80
2023-02-01T05:31:41.815Z,72.68
2023-02-01T05:34:14.985Z,72.85
2023-02-01T05:36:47.789Z,72.82
2023-02-01T05:39:21.091Z,72.67
2023-02-01T05:41:54.398Z,72.84
2023-02-01T05:44:27.989Z,73.06
2023-02-01T05:47:01.572Z,73.11
2023-02-01T05:49:35.307Z,72.97
2023-02-01T05:52:08.785Z,73.10
2023-02-01T05:54:41.985Z,73.19
2023-02-01T05:57:19.068Z,72.99
2023-02-01T05:59:52.669Z,72.98
2023-02-01T06:02:26.969Z,73.09
2023-02-01T06:05:01.366Z,73.09
2023-02-01T06:07:33.927Z,73.09
2023-02-01T06:10:08.803Z,72.62
2023-02-01T06:12:42.574Z,72.69
2023-02-01T06:15:19.770Z,73.16
2023-02-01T06:17:52.185Z,73.17
2023-02-01T06:20:25.566Z,73.38
2023-02-01T06:22:58.358Z,73.38
2023-02-01T06:25:30.960Z,73.51
2023-02-01T06:28:05.434Z,73.63
2023-02-01T06:30:37.070Z,73.74
2023-02-01T06:33:09.325Z,73.46
2023-02-01T06:35:43.703Z,73.26
2023-02-01T06:38:16.627Z,72.95
2023-02-01T06:40:52.767Z,72.65
2023-02-01T06:43:28.702Z,72.62
2023-02-01T06:46:06.199Z,72.76
2023-02-01T06:48:38.688Z,73.39
2023-02-01T06:51:22.855Z,73.13
2023-02-01T06:53:55.427Z,72.82
2023-02-01T06:56:28.424Z,72.87
2023-02-01T06:59:01.613Z,72.57
2023-02-01T07:01:33.668Z,72.48
2023-02-01T07:04:06.325Z,72.46
2023-02-01T07:06:38.716Z,72.37
2023-02-01T07:09:13.376Z,72.53
2023-02-01T07:11:46.062Z,72.75
2023-02-01T07:14:18.729Z,73.51
2023-02-01T07:16:52.298Z,74.00
2023-02-01T07:19:25.620Z,74.24
2023-02-01T07:21:57.682Z,74.46
2023-02-01T07:24:30.226Z,74.10
2023-02-01T07:27:02.978Z,73.89
2023-02-01T07:29:35.521Z,74.19
2023-02-01T07:32:07.994Z,74.21
2023-02-01T07:34:40.367Z,74.18
2023-02-01T07:37:14.532Z,73.52
2023-02-01T07:39:46.224Z,73.87
2023-02-01T07:42:18.235Z,73.36
2023-02-01T07:44:50.780Z,72.97
2023-02-01T07:47:23.197Z,72.74
2023-02-01T07:49:55.814Z,72.93
2023-02-01T07:52:31.847Z,72.93
2023-02-01T07:55:04.957Z,72.69
2023-02-01T07:57:37.254Z,72.40
2023-02-01T08:00:28.054Z,72.34
2023-02-01T08:03:03.316Z,72.52
2023-02-01T08:05:35.567Z,71.95
2023-02-01T08:08:08.566Z,71.64
2023-02-01T08:10:41.344Z,71.35
2023-02-01T08:13:32.238Z,71.40
2023-02-01T08:16:07.098Z,71.57
2023-02-01T08:18:41.018Z,71.00
2023-02-01T08:21:19.052Z,71.02
2023-02-01T08:23:51.436Z,71.33
2023-02-01T08:26:28.039Z,70.60
2023-02-01T08:29:03.083Z,70.41
2023-02-01T08:31:35.510Z,70.24
2023-02-01T08:34:09.472Z,70.38
2023-02-01T08:36:42.169Z,70.34
2023-02-01T08:39:15.308Z,70.26
2023-02-01T08:41:49.470Z,69.90
2023-02-01T08:44:21.881Z,69.85
2023-02-01T08:46:54.100Z,69.83
2023-02-01T08:49:27.309Z,70.21
2023-02-01T08:52:04.036Z,70.82
2023-02-01T08:54:33.586Z,70.38
2023-02-01T08:57:06.154Z,70.02
2023-02-01T08:59:38.873Z,69.86
2023-02-01T09:02:16.588Z,69.62
2023-02-01T09:04:49.345Z,69.24
2023-02-01T09:07:22.017Z,69.04
2023-02-01T09:09:55.699Z,68.87
2023-02-01T09:12:28.198Z,68.59
2023-02-01T09:15:01.136Z,68.87
2023-02-01T09:17:34.129Z,68.85
2023-02-01T09:20:07.122Z,68.60
2023-02-01T09:22:40.234Z,68.04
2023-02-01T09:25:13.256Z,67.65
2023-02-01T09:27:46.245Z,67.00
2023-02-01T09:30:19.300Z,67.37
2023-02-01T09:32:51.406Z,67.00
2023-02-01T09:35:23.347Z,67.15
2023-02-01T09:37:56.119Z,67.17
2023-02-01T09:40:28.886Z,66.48
2023-02-01T09:43:04.220Z,66.51
2023-02-01T09:45:40.159Z,66.05
2023-02-01T09:48:15.516Z,65.23
2023-02-01T09:50:53.396Z,64.40
2023-02-01T09:53:33.949Z,63.90
2023-02-01T09:56:08.645Z,63.61
2023-02-01T09:58:47.281Z,64.02
2023-02-01T10:01:25.129Z,64.31
2023-02-01T10:04:00.415Z,64.38
2023-02-01T10:06:56.705Z,64.67
2023-02-01T10:09:46.511Z,65.04
2023-02-01T10:12:39.467Z,65.10
2023-02-01T10:15:17.452Z,65.05
2023-02-01T10:17:52.608Z,65.30
2023-02-01T10:20:49.756Z,65.77
2023-02-01T10:23:39.412Z,66.04
2023-02-01T10:26:26.195Z,66.19
2023-02-01T10:29:01.168Z,66.32
2023-02-01T10:31:36.792Z,66.62
2023-02-01T10:34:28.185Z,66.73
2023-02-01T10:37:22.539Z,66.59
2023-02-01T10:39:58.790Z,67.52
2023-02-01T10:42:31.943Z,68.33
2023-02-01T10:45:05.752Z,68.96
2023-02-01T10:47:38.490Z,68.90
2023-02-01T10:50:30.139Z,69.18
2023-02-01T10:53:06.687Z,69.29
2023-02-01T10:55:44.719Z,69.72
2023-02-01T10:58:25.277Z,69.71
2023-02-01T11:01:09.157Z,69.23
2023-02-01T11:03:43.674Z,70.73
2023-02-01T11:06:20.915Z,70.55
2023-02-01T11:09:02.013Z,71.09
2023-02-01T11:11:34.395Z,71.62
2023-02-01T11:14:15.295Z,72.13
2023-02-01T11:16:53.050Z,73.27
2023-02-01T11:19:25.727Z,74.39
2023-02-01T11:22:00.032Z,75.04
2023-02-01T11:24:37.318Z,75.40
2023-02-01T11:27:26.658Z,75.27
2023-02-01T11:29:55.767Z,75.63
2023-02-01T11:32:29.005Z,75.81
2023-02-01T11:35:07.016Z,75.81
2023-02-01T11:37:42.569Z,75.90
2023-02-01T11:40:24.080Z,75.90
2023-02-01T11:43:18.352Z,75.71
2023-02-01T11:45:59.335Z,76.11
2023-02-01T11:48:34.082Z,76.43
2023-02-01T11:51:32.489Z,76.57
2023-02-01T11:54:19.653Z,77.17
2023-02-01T11:57:00.631Z,77.05
2023-02-01T11:59:56.383Z,77.16
2023-02-01T12:02:24.975Z,76.84
2023-02-01T12:05:10.985Z,76.71
2023-02-01T12:07:52.828Z,76.61
2023-02-01T12:10:33.559Z,76.54
2023-02-01T12:13:14.957Z,77.15
2023-02-01T12:15:50.705Z,77.12
2023-02-01T12:18:41.475Z,77.13
2023-02-01T12:21:22.168Z,77.33
2023-02-01T12:24:26.604Z,77.45
2023-02-01T12:27:10.982Z,77.49
2023-02-01T12:29:57.515Z,76.71
2023-02-01T12:32:38.929Z,76.96
2023-02-01T12:35:40.762Z,77.14
2023-02-01T12:38:18.748Z,77.01
2023-02-01T12:40:56.804Z,75.88
2023-02-01T12:43:43.717Z,75.78
2023-02-01T12:46:35.089Z,76.40
2023-02-01T12:49:15.918Z,76.09
2023-02-01T12:51:51.309Z,75.88
2023-02-01T12:54:35.086Z,75.71
2023-02-01T12:57:11.954Z,75.72
2023-02-01T13:00:06.621Z,75.21
2023-02-01T13:02:47.661Z,75.33
2023-02-01T13:05:23.493Z,74.76
2023-02-01T13:08:09.202Z,74.77
2023-02-01T13:10:49.894Z,74.82
2023-02-01T13:13:50.325Z,74.50
2023-02-01T13:16:29.588Z,74.11
2023-02-01T13:19:16.856Z,74.44
2023-02-01T13:21:57.867Z,73.79
2023-02-01T13:24:41.540Z,73.95
2023-02-01T13:27:18.648Z,73.45
2023-02-01T13:30:02.933Z,73.18
2023-02-01T13:33:53.775Z,72.92
2023-02-01T13:36:01.362Z,72.93
2023-02-01T13:39:00.506Z,72.90
2023-02-01T13:41:44.850Z,72.94
2023-02-01T13:44:18.944Z,72.88
2023-02-01T13:46:53.456Z,72.29
2023-02-01T13:49:31.263Z,73.14
2023-02-01T13:52:03.550Z,73.42
2023-02-01T13:54:39.005Z,73.84
2023-02-01T13:57:30.815Z,74.09
2023-02-01T14:00:10.041Z,73.64
2023-02-01T14:02:51.210Z,73.83
2023-02-01T14:05:35.645Z,74.32
2023-02-01T14:08:15.226Z,74.33
2023-02-01T14:10:53.065Z,74.37
2023-02-01T14:13:37.181Z,74.11
2023-02-01T14:16:15.211Z,73.48
2023-02-01T14:18:50.583Z,73.16
2023-02-01T14:21:36.610Z,73.22
2023-02-01T14:24:14.793Z,73.58
2023-02-01T14:26:56.309Z,73.54
2023-02-01T14:29:40.667Z,73.48
2023-02-01T14:32:26.092Z,72.89
2023-02-01T14:35:01.322Z,72.57
2023-02-01T14:37:36.585Z,72.21
2023-02-01T14:40:14.546Z,71.94
2023-02-01T14:42:48.855Z,72.21
2023-02-01T14:45:23.280Z,71.78
2023-02-01T14:48:01.072Z,71.28
2023-02-01T14:50:39.083Z,71.04
2023-02-01T14:53:18.058Z,71.02
2023-02-01T14:56:05.301Z,71.21
2023-02-01T14:59:01.221Z,70.73
2023-02-01T15:01:40.418Z,70.62
2023-02-01T15:04:16.338Z,70.32
2023-02-01T15:07:09.484Z,70.46
2023-02-01T15:09:47.253Z,70.39
2023-02-01T15:12:23.175Z,70.13
2023-02-01T15:15:20.921Z,69.64
2023-02-01T15:17:56.361Z,69.04
2023-02-01T15:20:34.135Z,68.65
2023-02-01T15:23:10.625Z,68.68
2023-02-01T15:25:42.797Z,68.85
2023-02-01T15:28:19.453Z,68.68
2023-02-01T15:31:02.712Z,68.43
2023-02-01T15:33:36.668Z,68.18
2023-02-01T15:36:13.427Z,68.22
2023-02-01T15:38:47.036Z,68.29
2023-02-01T15:41:22.883Z,67.91
2023-02-01T15:43:59.761Z,67.89
2023-02-01T15:46:40.999Z,67.87
2023-02-01T15:49:19.279Z,67.62
2023-02-01T15:51:51.951Z,67.46
2023-02-01T15:54:27.458Z,67.78
2023-02-01T15:57:03.335Z,67.43
2023-02-01T15:59:39.009Z,67.53
2023-02-01T16:02:33.324Z,67.38
2023-02-01T16:05:07.261Z,67.26
2023-02-01T16:07:40.928Z,67.29
2023-02-01T16:10:25.123Z,67.46
2023-02-01T16:12:59.256Z,67.19
2023-02-01T16:15:32.996Z,67.25
2023-02-01T16:18:05.137Z,67.27
2023-02-01T16:20:41.721Z,66.92
2023-02-01T16:23:14.068Z,66.84
2023-02-01T16:25:46.559Z,67.39
2023-02-01T16:28:18.713Z,67.41
2023-02-01T16:30:51.466Z,67.31
2023-02-01T16:33:25.299Z,67.07
2023-02-01T16:36:00.673Z,67.44
2023-02-01T16:38:33.445Z,67.42
2023-02-01T16:41:06.989Z,67.37
2023-02-01T16:43:39.672Z,67.49
2023-02-01T16:46:25.465Z,67.62
2023-02-01T16:49:00.407Z,67.67
2023-02-01T16:51:34.221Z,67.57
2023-02-01T16:54:06.762Z,67.29
2023-02-01T16:56:42.513Z,67.25
2023-02-01T16:59:15.579Z,67.06
2023-02-01T17:01:49.976Z,66.83
2023-02-01T17:04:22.258Z,67.00
2023-02-01T17:06:54.345Z,66.71
2023-02-01T17:09:26.502Z,66.65
2023-02-01T17:11:58.639Z,66.82
2023-02-01T17:14:38.355Z,66.26
2023-02-01T17:17:11.752Z,66.07
2023-02-01T17:19:44.723Z,66.27
2023-02-01T17:22:17.152Z,66.24
2023-02-01T17:24:49.933Z,66.33
2023-02-01T17:27:22.084Z,66.27
2023-02-01T17:29:55.437Z,66.25
2023-02-01T17:32:28.047Z,66.03
2023-02-01T17:35:01.736Z,65.87
2023-02-01T17:37:36.919Z,66.14
2023-02-01T17:40:10.760Z,66.21
2023-02-01T17:42:44.048Z,66.22
2023-02-01T17:45:32.946Z,66.23
2023-02-01T17:48:06.870Z,66.17
2023-02-01T17:50:40.230Z,66.25
2023-02-01T17:53:13.780Z,66.23
2023-02-01T17:55:47.419Z,66.32
2023-02-01T17:58:21.677Z,66.33
2023-02-01T18:00:55.075Z,66.36
2023-02-01T18:03:30.303Z,66.46
2023-02-01T18:06:03.204Z,66.54
2023-02-01T18:08:35.442Z,66.68
2023-02-01T18:11:10.025Z,66.74
2023-02-01T18:13:42.958Z,66.72
2023-02-01T18:16:27.450Z,66.95
2023-02-01T18:19:02.663Z,66.78
2023-02-01T18:21:37.421Z,66.72
2023-02-01T18:24:13.036Z,66.65
2023-02-01T18:26:46.409Z,66.92
2023-02-01T18:29:19.114Z,66.51
2023-02-01T18:31:51.594Z,66.61
2023-02-01T18:34:25.722Z,66.52
2023-02-01T18:36:58.002Z,66.46
2023-02-01T18:39:30.264Z,66.26
2023-02-01T18:42:02.451Z,66.36
2023-02-01T18:44:36.742Z,66.14
2023-02-01T18:47:11.384Z,66.18
2023-02-01T18:49:43.751Z,66.28
2023-02-01T18:52:16.585Z,66.14
2023-02-01T18:54:59.491Z,66.04
2023-02-01T18:57:23.219Z,65.97
2023-02-01T18:59:55.574Z,66.22
2023-02-01T19:02:28.072Z,65.80
2023-02-01T19:05:00.119Z,65.62
2023-02-01T19:07:33.089Z,65.45
2023-02-01T19:10:10.604Z,65.65
2023-02-01T19:12:42.697Z,65.56
2023-02-01T19:15:17.024Z,65.69
2023-02-01T19:17:49.473Z,65.88
2023-02-01T19:20:22.597Z,66.30
2023-02-01T19:22:55.284Z,65.61
2023-02-01T19:25:30.087Z,65.68
2023-02-01T19:28:02.163Z,65.59
2023-02-01T19:30:34.374Z,65.58
2023-02-01T19:33:06.399Z,66.00
2023-02-01T19:35:38.781Z,66.21
2023-02-01T19:38:11.530Z,66.48
2023-02-01T19:40:45.073Z,67.08
2023-02-01T19:43:17.064Z,67.32
2023-02-01T19:45:49.380Z,68.35
2023-02-01T19:48:21.688Z,69.40
2023-02-01T19:50:54.208Z,69.64
2023-02-01T19:53:28.183Z,70.15
2023-02-01T19:56:02.008Z,70.73
2023-02-01T19:58:34.075Z,70.75
2023-02-01T20:01:06.309Z,71.03
2023-02-01T20:03:38.872Z,71.31
2023-02-01T20:06:13.748Z,71.83
2023-02-01T20:08:47.548Z,71.93
2023-02-01T20:11:19.592Z,71.58
2023-02-01T20:13:52.566Z,71.98
2023-02-01T20:16:25.049Z,71.79
2023-02-01T20:18:57.329Z,71.96
2023-02-01T20:21:29.371Z,72.21
2023-02-01T20:24:01.312Z,72.51
2023-02-01T20:26:34.684Z,72.94
2023-02-01T20:29:06.931Z,73.12
2023-02-01T20:31:39.381Z,73.62
2023-02-01T20:34:11.771Z,73.74
2023-02-01T20:36:43.829Z,73.76
2023-02-01T20:39:15.906Z,74.11
2023-02-01T20:41:47.902Z,74.23
2023-02-01T20:44:20.074Z,74.36
2023-02-01T20:46:51.996Z,74.40
2023-02-01T20:49:23.982Z,74.76
2023-02-01T20:51:57.573Z,74.87
2023-02-01T20:54:29.423Z,75.12
2023-02-01T20:57:01.376Z,75.22
2023-02-01T20:59:33.271Z,75.12
2023-02-01T21:02:05.432Z,75.21
2023-02-01T21:04:37.917Z,75.18
2023-02-01T21:07:10.069Z,75.27
2023-02-01T21:09:43.421Z,75.23
2023-02-01T21:12:15.376Z,75.29
2023-02-01T21:14:47.365Z,75.06
2023-02-01T21:17:19.743Z,75.22
2023-02-01T21:19:51.780Z,75.16
2023-02-01T21:22:23.808Z,75.37
2023-02-01T21:24:55.951Z,75.59
2023-02-01T21:27:27.789Z,75.56
2023-02-01T21:29:59.910Z,75.56
2023-02-01T21:32:35.580Z,75.35
2023-02-01T21:35:07.356Z,75.16
2023-02-01T21:37:39.116Z,75.19
2023-02-01T21:40:12.162Z,74.82
2023-02-01T21:42:45.764Z,74.82
2023-02-01T21:45:19.195Z,75.00
2023-02-01T21:47:51.175Z,75.19
2023-02-01T21:50:23.206Z,74.90
2023-02-01T21:52:55.363Z,75.00
2023-02-01T21:55:27.387Z,74.91
2023-02-01T21:57:59.733Z,74.93
2023-02-01T22:00:31.835Z,74.50
2023-02-01T22:03:04.091Z,74.32
2023-02-01T22:05:36.071Z,74.34
2023-02-01T22:08:08.228Z,74.69
2023-02-01T22:10:42.233Z,74.52
2023-02-01T22:13:14.610Z,74.36
2023-02-01T22:15:46.734Z,74.34
2023-02-01T22:18:19.317Z,74.41
2023-02-01T22:20:51.702Z,74.48
2023-02-01T22:23:25.521Z,74.58
2023-02-01T22:26:06.757Z,74.46
2023-02-01T22:28:40.311Z,74.28
2023-02-01T22:31:12.497Z,74.10
2023-02-01T22:33:46.948Z,73.92
2023-02-01T22:36:20.086Z,73.50
2023-02-01T22:38:52.607Z,73.44
2023-02-01T22:41:25.079Z,73.80
2023-02-01T22:43:57.127Z,73.64
2023-02-01T22:46:31.520Z,73.64
2023-02-01T22:49:04.224Z,73.62
2023-02-01T22:51:36.608Z,73.56
2023-02-01T22:54:09.523Z,73.73
2023-02-01T22:56:41.443Z,73.85
2023-02-01T22:59:14.723Z,73.75
2023-02-01T23:01:47.061Z,73.36
2023-02-01T23:04:19.110Z,73.24
2023-02-01T23:06:52.237Z,73.53
2023-02-01T23:09:26.283Z,73.07
2023-02-01T23:11:58.246Z,73.05
2023-02-01T23:14:30.201Z,72.69
2023-02-01T23:17:02.137Z,72.94
2023-02-01T23:19:34.756Z,72.76
2023-02-01T23:22:06.740Z,72.87
2023-02-01T23:24:38.682Z,73.03
2023-02-01T23:27:11.902Z,73.23
2023-02-01T23:29:43.944Z,73.34
2023-02-01T23:32:17.321Z,73.33
2023-02-01T23:34:49.524Z,73.01
2023-02-01T23:37:21.464Z,72.78
2023-02-01T23:39:53.912Z,72.79
2023-02-01T23:42:25.751Z,72.82
2023-02-01T23:44:57.801Z,72.78
2023-02-01T23:47:29.968Z,72.87
2023-02-01T23:50:02.028Z,72.94
2023-02-01T23:52:33.983Z,72.67
2023-02-01T23:55:06.084Z,72.61
2023-02-01T23:57:38.194Z,72.45
